sensor_id;sensor_type;location;lat;lon;timestamp;pressure;altitude;pressure_sealevel;temperature;humidity
2549;BME280;1284;53.520;10.248;2022-07-10T00:00:35;101444.34;;;17.35;83.54
2549;BME280;1284;53.520;10.248;2022-07-10T00:03:02;101442.81;;;17.41;83.65
2549;BME280;1284;53.520;10.248;2022-07-10T00:05:28;101441.63;;;17.38;83.63
2549;BME280;1284;53.520;10.248;2022-07-10T00:07:54;101451.00;;;17.41;83.35
2549;BME280;1284;53.520;10.248;2022-07-10T00:10:22;101439.72;;;17.42;83.17
2549;BME280;1284;53.520;10.248;2022-07-10T00:12:48;101435.84;;;17.43;83.64
2549;BME280;1284;53.520;10.248;2022-07-10T00:15:15;101442.81;;;17.41;83.42
2549;BME280;1284;53.520;10.248;2022-07-10T00:17:42;101439.31;;;17.40;84.30
2549;BME280;1284;53.520;10.248;2022-07-10T00:20:09;101449.44;;;17.36;84.68
2549;BME280;1284;53.520;10.248;2022-07-10T00:22:36;101442.81;;;17.34;84.46
2549;BME280;1284;53.520;10.248;2022-07-10T00:25:02;101444.00;;;17.36;83.23
2549;BME280;1284;53.520;10.248;2022-07-10T00:27:28;101442.44;;;17.39;83.29
2549;BME280;1284;53.520;10.248;2022-07-10T00:29:54;101449.81;;;17.38;83.16
2549;BME280;1284;53.520;10.248;2022-07-10T00:32:20;101437.75;;;17.39;82.88
2549;BME280;1284;53.520;10.248;2022-07-10T00:34:45;101440.88;;;17.41;83.96
2549;BME280;1284;53.520;10.248;2022-07-10T00:39:57;101436.97;;;17.39;84.08
2549;BME280;1284;53.520;10.248;2022-07-10T00:42:23;101423.75;;;17.37;84.54
2549;BME280;1284;53.520;10.248;2022-07-10T00:44:48;101435.41;;;17.34;84.71
2549;BME280;1284;53.520;10.248;2022-07-10T00:47:14;101431.44;;;17.21;86.08
2549;BME280;1284;53.520;10.248;2022-07-10T00:49:43;101436.88;;;17.21;85.98
2549;BME280;1284;53.520;10.248;2022-07-10T00:52:13;101429.09;;;17.23;85.44
2549;BME280;1284;53.520;10.248;2022-07-10T00:54:42;101436.13;;;17.24;85.13
2549;BME280;1284;53.520;10.248;2022-07-10T00:57:08;101433.75;;;17.19;85.57
2549;BME280;1284;53.520;10.248;2022-07-10T00:59:35;101441.13;;;17.15;86.33
2549;BME280;1284;53.520;10.248;2022-07-10T01:02:02;101429.81;;;17.13;86.12
2549;BME280;1284;53.520;10.248;2022-07-10T01:04:29;101424.38;;;17.13;85.84
2549;BME280;1284;53.520;10.248;2022-07-10T01:06:54;101413.88;;;17.11;85.96
2549;BME280;1284;53.520;10.248;2022-07-10T01:09:20;101413.50;;;17.13;85.37
2549;BME280;1284;53.520;10.248;2022-07-10T01:11:46;101426.34;;;17.12;84.84
2549;BME280;1284;53.520;10.248;2022-07-10T01:14:12;101415.78;;;17.04;85.57
2549;BME280;1284;53.520;10.248;2022-07-10T01:16:37;101420.50;;;17.14;84.89
2549;BME280;1284;53.520;10.248;2022-07-10T01:19:03;101414.28;;;17.17;84.35
2549;BME280;1284;53.520;10.248;2022-07-10T01:21:36;101418.19;;;17.16;84.37
2549;BME280;1284;53.520;10.248;2022-07-10T01:24:07;101408.84;;;17.13;83.63
2549;BME280;1284;53.520;10.248;2022-07-10T01:26:34;101410.03;;;17.16;83.93
2549;BME280;1284;53.520;10.248;2022-07-10T01:29:04;101408.84;;;17.17;83.68
2549;BME280;1284;53.520;10.248;2022-07-10T01:31:30;101415.88;;;17.18;83.73
2549;BME280;1284;53.520;10.248;2022-07-10T01:33:56;101401.47;;;17.14;83.92
2549;BME280;1284;53.520;10.248;2022-07-10T01:36:22;101403.78;;;17.12;83.72
2549;BME280;1284;53.520;10.248;2022-07-10T01:38:51;101406.47;;;17.08;84.01
2549;BME280;1284;53.520;10.248;2022-07-10T01:41:16;101402.16;;;17.04;84.81
2549;BME280;1284;53.520;10.248;2022-07-10T01:43:45;101391.28;;;17.04;85.06
2549;BME280;1284;53.520;10.248;2022-07-10T01:46:11;101397.50;;;17.01;84.47
2549;BME280;1284;53.520;10.248;2022-07-10T01:48:38;101399.81;;;16.95;84.92
2549;BME280;1284;53.520;10.248;2022-07-10T01:51:05;101398.22;;;16.94;84.65
2549;BME280;1284;53.520;10.248;2022-07-10T01:53:31;101386.53;;;16.94;85.06
2549;BME280;1284;53.520;10.248;2022-07-10T01:55:58;101381.53;;;16.99;84.91
2549;BME280;1284;53.520;10.248;2022-07-10T01:58:24;101390.06;;;16.94;84.82
2549;BME280;1284;53.520;10.248;2022-07-10T02:00:50;101387.75;;;17.00;85.38
2549;BME280;1284;53.520;10.248;2022-07-10T02:03:15;101390.47;;;16.96;85.75
2549;BME280;1284;53.520;10.248;2022-07-10T02:06:00;101387.75;;;17.00;85.62
2549;BME280;1284;53.520;10.248;2022-07-10T02:08:25;101381.91;;;16.98;85.32
2549;BME280;1284;53.520;10.248;2022-07-10T02:10:51;101385.44;;;17.02;85.47
2549;BME280;1284;53.520;10.248;2022-07-10T02:13:16;101379.97;;;16.95;84.70
2549;BME280;1284;53.520;10.248;2022-07-10T02:15:46;101381.16;;;16.97;84.42
2549;BME280;1284;53.520;10.248;2022-07-10T02:20:58;101381.16;;;16.97;84.22
2549;BME280;1284;53.520;10.248;2022-07-10T02:23:24;101380.75;;;16.99;84.24
2549;BME280;1284;53.520;10.248;2022-07-10T02:25:49;101383.47;;;16.99;84.11
2549;BME280;1284;53.520;10.248;2022-07-10T02:28:15;101378.03;;;16.99;84.60
2549;BME280;1284;53.520;10.248;2022-07-10T02:30:41;101374.16;;;17.00;83.87
2549;BME280;1284;53.520;10.248;2022-07-10T02:33:07;101374.94;;;17.00;84.47
2549;BME280;1284;53.520;10.248;2022-07-10T02:35:33;101369.88;;;16.99;84.71
2549;BME280;1284;53.520;10.248;2022-07-10T02:37:58;101373.00;;;17.01;84.24
2549;BME280;1284;53.520;10.248;2022-07-10T02:40:24;101376.94;;;17.10;84.33
2549;BME280;1284;53.520;10.248;2022-07-10T02:42:49;101380.06;;;17.09;83.94
2549;BME280;1284;53.520;10.248;2022-07-10T02:45:15;101379.59;;;17.00;83.92
2549;BME280;1284;53.520;10.248;2022-07-10T02:47:41;101376.13;;;17.03;84.32
2549;BME280;1284;53.520;10.248;2022-07-10T02:50:07;101379.25;;;17.05;83.42
2549;BME280;1284;53.520;10.248;2022-07-10T02:52:33;101378.06;;;17.06;83.37
2549;BME280;1284;53.520;10.248;2022-07-10T02:54:58;101373.41;;;17.03;83.54
2549;BME280;1284;53.520;10.248;2022-07-10T02:57:24;101376.53;;;17.05;83.87
2549;BME280;1284;53.520;10.248;2022-07-10T02:59:49;101378.47;;;17.08;83.76
2549;BME280;1284;53.520;10.248;2022-07-10T03:02:15;101371.44;;;17.03;83.92
2549;BME280;1284;53.520;10.248;2022-07-10T03:04:41;101369.53;;;17.07;83.59
2549;BME280;1284;53.520;10.248;2022-07-10T03:07:06;101363.31;;;17.07;83.39
2549;BME280;1284;53.520;10.248;2022-07-10T03:09:32;101370.63;;;16.99;83.71
2549;BME280;1284;53.520;10.248;2022-07-10T03:11:58;101373.00;;;17.01;83.82
2549;BME280;1284;53.520;10.248;2022-07-10T03:14:23;101372.19;;;16.93;84.61
2549;BME280;1284;53.520;10.248;2022-07-10T03:16:49;101371.78;;;16.95;85.18
2549;BME280;1284;53.520;10.248;2022-07-10T03:19:14;101372.59;;;16.95;84.27
2549;BME280;1284;53.520;10.248;2022-07-10T03:21:40;101381.53;;;16.99;84.68
2549;BME280;1284;53.520;10.248;2022-07-10T03:24:06;101374.53;;;17.02;83.96
2549;BME280;1284;53.520;10.248;2022-07-10T03:26:31;101378.84;;;17.03;83.54
2549;BME280;1284;53.520;10.248;2022-07-10T03:28:57;101373.81;;;17.05;83.36
2549;BME280;1284;53.520;10.248;2022-07-10T03:31:22;101371.09;;;17.05;83.33
2549;BME280;1284;53.520;10.248;2022-07-10T03:33:48;101369.13;;;17.05;83.37
2549;BME280;1284;53.520;10.248;2022-07-10T03:36:14;101365.25;;;17.03;83.52
2549;BME280;1284;53.520;10.248;2022-07-10T03:38:40;101368.72;;;17.03;83.67
2549;BME280;1284;53.520;10.248;2022-07-10T03:41:05;101365.97;;;16.96;83.54
2549;BME280;1284;53.520;10.248;2022-07-10T03:43:31;101372.63;;;17.02;83.42
2549;BME280;1284;53.520;10.248;2022-07-10T03:45:57;101365.25;;;17.03;83.08
2549;BME280;1284;53.520;10.248;2022-07-10T03:48:23;101379.16;;;16.91;84.12
2549;BME280;1284;53.520;10.248;2022-07-10T03:53:18;101377.56;;;16.86;85.47
2549;BME280;1284;53.520;10.248;2022-07-10T03:55:44;101371.41;;;16.93;85.42
2549;BME280;1284;53.520;10.248;2022-07-10T03:58:09;101369.47;;;16.93;85.37
2549;BME280;1284;53.520;10.248;2022-07-10T04:00:35;101370.63;;;16.96;84.19
2549;BME280;1284;53.520;10.248;2022-07-10T04:03:06;101369.88;;;16.99;84.09
2549;BME280;1284;53.520;10.248;2022-07-10T04:05:33;101362.13;;;17.01;84.19
2549;BME280;1284;53.520;10.248;2022-07-10T04:08:00;101363.66;;;16.98;84.28
2549;BME280;1284;53.520;10.248;2022-07-10T04:10:27;101362.13;;;17.01;83.35
2549;BME280;1284;53.520;10.248;2022-07-10T04:12:53;101351.25;;;17.04;82.56
2549;BME280;1284;53.520;10.248;2022-07-10T04:15:19;101356.69;;;17.04;82.33
2549;BME280;1284;53.520;10.248;2022-07-10T04:17:45;101345.41;;;17.09;83.00
2549;BME280;1284;53.520;10.248;2022-07-10T04:20:11;101356.72;;;17.15;83.13
2549;BME280;1284;53.520;10.248;2022-07-10T04:22:37;101352.47;;;17.21;82.42
2549;BME280;1284;53.520;10.248;2022-07-10T04:25:03;101360.63;;;17.17;82.85
2549;BME280;1284;53.520;10.248;2022-07-10T04:27:29;101352.06;;;17.19;82.19
2549;BME280;1284;53.520;10.248;2022-07-10T04:29:55;101346.63;;;17.19;82.58
2549;BME280;1284;53.520;10.248;2022-07-10T04:32:21;101352.03;;;17.08;82.15
2549;BME280;1284;53.520;10.248;2022-07-10T04:34:46;101353.59;;;17.09;82.68
2549;BME280;1284;53.520;10.248;2022-07-10T04:39:38;101349.75;;;17.17;82.70
2549;BME280;1284;53.520;10.248;2022-07-10T04:42:06;101351.34;;;17.26;82.39
2549;BME280;1284;53.520;10.248;2022-07-10T04:44:31;101349.81;;;17.28;81.50
2549;BME280;1284;53.520;10.248;2022-07-10T04:46:57;101343.97;;;17.33;81.47
2549;BME280;1284;53.520;10.248;2022-07-10T04:49:24;101352.13;;;17.26;82.02
2549;BME280;1284;53.520;10.248;2022-07-10T04:51:49;101364.22;;;17.39;81.85
2549;BME280;1284;53.520;10.248;2022-07-10T04:54:15;101370.06;;;17.41;81.97
2549;BME280;1284;53.520;10.248;2022-07-10T04:56:40;101361.22;;;17.51;81.50
2549;BME280;1284;53.520;10.248;2022-07-10T04:59:06;101365.53;;;17.59;81.18
2549;BME280;1284;53.520;10.248;2022-07-10T05:01:33;101366.31;;;17.67;80.75
2549;BME280;1284;53.520;10.248;2022-07-10T05:03:58;101368.25;;;17.73;80.93
2549;BME280;1284;53.520;10.248;2022-07-10T05:06:24;101369.44;;;17.79;80.64
2549;BME280;1284;53.520;10.248;2022-07-10T05:08:50;101372.97;;;17.76;80.24
2549;BME280;1284;53.520;10.248;2022-07-10T05:11:15;101372.22;;;17.86;80.01
2549;BME280;1284;53.520;10.248;2022-07-10T05:13:41;101368.69;;;17.89;79.48
2549;BME280;1284;53.520;10.248;2022-07-10T05:16:10;101372.59;;;17.92;79.70
2549;BME280;1284;53.520;10.248;2022-07-10T05:18:36;101362.84;;;17.91;80.41
2549;BME280;1284;53.520;10.248;2022-07-10T05:21:01;101378.84;;;17.96;80.04
2549;BME280;1284;53.520;10.248;2022-07-10T05:23:27;101371.03;;;17.94;79.84
2549;BME280;1284;53.520;10.248;2022-07-10T05:25:53;101379.59;;;17.96;79.15
2549;BME280;1284;53.520;10.248;2022-07-10T05:28:18;101379.63;;;18.03;79.29
2549;BME280;1284;53.520;10.248;2022-07-10T05:30:44;101377.31;;;18.09;78.69
2549;BME280;1284;53.520;10.248;2022-07-10T05:33:09;101385.47;;;18.16;77.20
2549;BME280;1284;53.520;10.248;2022-07-10T05:35:35;101381.59;;;18.17;77.55
2549;BME280;1284;53.520;10.248;2022-07-10T05:38:01;101383.53;;;18.24;76.62
2549;BME280;1284;53.520;10.248;2022-07-10T05:40:26;101376.94;;;18.32;76.99
2549;BME280;1284;53.520;10.248;2022-07-10T05:42:52;101371.13;;;18.44;76.15
2549;BME280;1284;53.520;10.248;2022-07-10T05:45:17;101385.94;;;18.50;74.54
2549;BME280;1284;53.520;10.248;2022-07-10T05:50:29;101376.19;;;18.52;72.87
2549;BME280;1284;53.520;10.248;2022-07-10T05:52:55;101380.47;;;18.53;73.20
2549;BME280;1284;53.520;10.248;2022-07-10T05:55:21;101380.47;;;18.53;73.64
2549;BME280;1284;53.520;10.248;2022-07-10T05:57:46;101383.19;;;18.57;73.53
2549;BME280;1284;53.520;10.248;2022-07-10T06:00:12;101380.47;;;18.67;73.24
2549;BME280;1284;53.520;10.248;2022-07-10T06:02:38;101379.66;;;18.70;72.54
2549;BME280;1284;53.520;10.248;2022-07-10T06:05:04;101378.09;;;18.76;73.00
2549;BME280;1284;53.520;10.248;2022-07-10T06:07:30;101383.16;;;18.92;71.45
2549;BME280;1284;53.520;10.248;2022-07-10T06:09:56;101381.88;;;19.28;71.21
2549;BME280;1284;53.520;10.248;2022-07-10T06:12:21;101381.84;;;19.42;70.06
2549;BME280;1284;53.520;10.248;2022-07-10T06:14:47;101383.78;;;19.45;70.41
2549;BME280;1284;53.520;10.248;2022-07-10T06:17:12;101389.69;;;19.37;70.34
2549;BME280;1284;53.520;10.248;2022-07-10T06:19:38;101384.16;;;19.51;69.20
2549;BME280;1284;53.520;10.248;2022-07-10T06:22:04;101388.44;;;19.55;67.88
2549;BME280;1284;53.520;10.248;2022-07-10T06:24:48;101390.44;;;19.44;68.58
2549;BME280;1284;53.520;10.248;2022-07-10T06:27:14;101396.66;;;19.52;68.33
2549;BME280;1284;53.520;10.248;2022-07-10T06:29:40;101385.75;;;19.48;67.55
2549;BME280;1284;53.520;10.248;2022-07-10T06:32:06;101391.25;;;19.41;68.07
2549;BME280;1284;53.520;10.248;2022-07-10T06:34:32;101401.78;;;19.29;68.16
2549;BME280;1284;53.520;10.248;2022-07-10T06:36:57;101396.72;;;19.20;69.50
2549;BME280;1284;53.520;10.248;2022-07-10T06:39:23;101400.28;;;19.14;69.99
2549;BME280;1284;53.520;10.248;2022-07-10T06:41:48;101384.28;;;19.09;69.90
2549;BME280;1284;53.520;10.248;2022-07-10T06:44:14;101398.72;;;19.09;69.03
2549;BME280;1284;53.520;10.248;2022-07-10T06:46:40;101391.31;;;19.10;69.69
2549;BME280;1284;53.520;10.248;2022-07-10T06:49:06;101394.00;;;19.20;69.29
2549;BME280;1284;53.520;10.248;2022-07-10T06:51:32;101407.25;;;19.32;68.10
2549;BME280;1284;53.520;10.248;2022-07-10T06:53:58;101394.63;;;19.63;66.92
2549;BME280;1284;53.520;10.248;2022-07-10T06:56:23;101398.09;;;19.77;67.08
2549;BME280;1284;53.520;10.248;2022-07-10T06:58:49;101396.84;;;19.89;66.66
2549;BME280;1284;53.520;10.248;2022-07-10T07:01:14;101405.34;;;20.09;64.15
2549;BME280;1284;53.520;10.248;2022-07-10T07:03:40;101396.91;;;20.44;64.54
2549;BME280;1284;53.520;10.248;2022-07-10T07:06:05;101390.06;;;20.66;63.30
2549;BME280;1284;53.520;10.248;2022-07-10T07:08:31;101384.88;;;20.79;61.58
2549;BME280;1284;53.520;10.248;2022-07-10T07:10:57;101385.91;;;20.92;59.98
2549;BME280;1284;53.520;10.248;2022-07-10T07:13:23;101395.66;;;20.93;60.00
2549;BME280;1284;53.520;10.248;2022-07-10T07:15:49;101389.28;;;21.06;58.98
2549;BME280;1284;53.520;10.248;2022-07-10T07:18:34;101396.66;;;21.13;57.53
2549;BME280;1284;53.520;10.248;2022-07-10T07:21:01;101386.16;;;21.08;58.44
2549;BME280;1284;53.520;10.248;2022-07-10T07:23:45;101391.41;;;21.29;58.33
2549;BME280;1284;53.520;10.248;2022-07-10T07:26:11;101392.13;;;21.33;58.55
2549;BME280;1284;53.520;10.248;2022-07-10T07:28:36;101391.41;;;21.29;56.81
2549;BME280;1284;53.520;10.248;2022-07-10T07:31:02;101383.06;;;21.02;56.49
2549;BME280;1284;53.520;10.248;2022-07-10T07:33:28;101383.91;;;20.96;57.05
2549;BME280;1284;53.520;10.248;2022-07-10T07:35:53;101380.00;;;20.93;57.90
2549;BME280;1284;53.520;10.248;2022-07-10T07:38:19;101382.13;;;21.19;57.36
2549;BME280;1284;53.520;10.248;2022-07-10T07:40:44;101386.31;;;21.27;56.85
2549;BME280;1284;53.520;10.248;2022-07-10T07:43:10;101374.44;;;21.37;57.23
2549;BME280;1284;53.520;10.248;2022-07-10T07:45:35;101375.09;;;21.48;56.93
2549;BME280;1284;53.520;10.248;2022-07-10T07:48:01;101378.97;;;21.51;57.43
2549;BME280;1284;53.520;10.248;2022-07-10T07:50:31;101381.84;;;21.71;55.12
2549;BME280;1284;53.520;10.248;2022-07-10T07:52:59;101382.50;;;21.82;54.37
2549;BME280;1284;53.520;10.248;2022-07-10T07:55:25;101388.59;;;21.63;55.12
2549;BME280;1284;53.520;10.248;2022-07-10T07:57:52;101398.25;;;21.44;56.19
2549;BME280;1284;53.520;10.248;2022-07-10T08:00:19;101388.09;;;21.41;55.86
2549;BME280;1284;53.520;10.248;2022-07-10T08:02:48;101388.03;;;21.48;55.56
2549;BME280;1284;53.520;10.248;2022-07-10T08:05:14;101391.56;;;21.48;56.12
2549;BME280;1284;53.520;10.248;2022-07-10T08:07:44;101395.09;;;21.45;55.65
2549;BME280;1284;53.520;10.248;2022-07-10T08:10:12;101390.84;;;21.41;55.47
2549;BME280;1284;53.520;10.248;2022-07-10T08:12:38;101391.56;;;21.48;55.84
2549;BME280;1284;53.520;10.248;2022-07-10T08:15:09;101379.22;;;21.64;55.68
2549;BME280;1284;53.520;10.248;2022-07-10T08:17:35;101384.75;;;21.56;55.75
2549;BME280;1284;53.520;10.248;2022-07-10T08:20:02;101383.03;;;21.70;54.70
2549;BME280;1284;53.520;10.248;2022-07-10T08:22:28;101380.13;;;21.84;55.62
2549;BME280;1284;53.520;10.248;2022-07-10T08:24:53;101374.28;;;21.82;53.99
2549;BME280;1284;53.520;10.248;2022-07-10T08:27:19;101378.88;;;21.88;53.88
2549;BME280;1284;53.520;10.248;2022-07-10T08:29:44;101372.53;;;21.95;53.13
2549;BME280;1284;53.520;10.248;2022-07-10T08:32:11;101382.81;;;22.14;54.11
2549;BME280;1284;53.520;10.248;2022-07-10T08:34:37;101374.19;;;22.38;53.22
2549;BME280;1284;53.520;10.248;2022-07-10T08:37:02;101371.28;;;22.72;52.21
2549;BME280;1284;53.520;10.248;2022-07-10T08:39:28;101371.81;;;23.06;50.94
2549;BME280;1284;53.520;10.248;2022-07-10T08:41:54;101376.06;;;23.30;50.62
2549;BME280;1284;53.520;10.248;2022-07-10T08:46:45;101370.75;;;23.59;49.17
2549;BME280;1284;53.520;10.248;2022-07-10T08:49:11;101384.50;;;23.59;49.13
2549;BME280;1284;53.520;10.248;2022-07-10T08:51:47;101370.81;;;23.56;48.18
2549;BME280;1284;53.520;10.248;2022-07-10T08:54:15;101371.41;;;23.47;48.42
2549;BME280;1284;53.520;10.248;2022-07-10T08:56:42;101371.97;;;23.39;46.69
2549;BME280;1284;53.520;10.248;2022-07-10T08:59:07;101371.56;;;23.40;47.04
2549;BME280;1284;53.520;10.248;2022-07-10T09:01:33;101368.03;;;23.40;48.54
2549;BME280;1284;53.520;10.248;2022-07-10T09:03:59;101374.59;;;23.46;48.64
2549;BME280;1284;53.520;10.248;2022-07-10T09:06:27;101360.94;;;23.58;49.04
2549;BME280;1284;53.520;10.248;2022-07-10T09:09:02;101366.16;;;23.72;48.65
2549;BME280;1284;53.520;10.248;2022-07-10T09:11:28;101366.53;;;23.90;49.30
2549;BME280;1284;53.520;10.248;2022-07-10T09:14:00;101371.63;;;24.08;47.58
2549;BME280;1284;53.520;10.248;2022-07-10T09:16:32;101374.31;;;24.28;47.71
2549;BME280;1284;53.520;10.248;2022-07-10T09:19:24;101379.38;;;24.45;47.58
2549;BME280;1284;53.520;10.248;2022-07-10T09:21:50;101375.09;;;24.28;46.52
2549;BME280;1284;53.520;10.248;2022-07-10T09:24:17;101376.72;;;24.26;46.47
2549;BME280;1284;53.520;10.248;2022-07-10T09:26:58;101373.72;;;24.36;46.50
2549;BME280;1284;53.520;10.248;2022-07-10T09:29:25;101370.59;;;24.50;46.14
2549;BME280;1284;53.520;10.248;2022-07-10T09:34:17;101378.16;;;24.78;46.96
2549;BME280;1284;53.520;10.248;2022-07-10T09:36:43;101367.47;;;24.80;44.60
2549;BME280;1284;53.520;10.248;2022-07-10T09:39:09;101383.59;;;24.66;44.60
2549;BME280;1284;53.520;10.248;2022-07-10T09:41:35;101371.63;;;24.40;45.39
2549;BME280;1284;53.520;10.248;2022-07-10T09:44:04;101387.47;;;24.36;45.68
2549;BME280;1284;53.520;10.248;2022-07-10T09:46:39;101383.25;;;24.64;44.47
2549;BME280;1284;53.520;10.248;2022-07-10T09:49:10;101376.41;;;24.68;43.66
2549;BME280;1284;53.520;10.248;2022-07-10T09:54:06;101377.03;;;24.76;44.35
2549;BME280;1284;53.520;10.248;2022-07-10T09:56:39;101387.09;;;24.66;44.60
2549;BME280;1284;53.520;10.248;2022-07-10T09:59:09;101381.25;;;24.64;45.75
2549;BME280;1284;53.520;10.248;2022-07-10T10:01:35;101385.56;;;24.81;45.98
2549;BME280;1284;53.520;10.248;2022-07-10T10:04:04;101365.34;;;25.00;45.00
2549;BME280;1284;53.520;10.248;2022-07-10T10:06:30;101378.47;;;24.96;46.59
2549;BME280;1284;53.520;10.248;2022-07-10T10:09:01;101378.84;;;24.82;45.87
2549;BME280;1284;53.520;10.248;2022-07-10T10:11:29;101376.19;;;24.79;46.10
2549;BME280;1284;53.520;10.248;2022-07-10T10:13:56;101372.59;;;24.94;44.19
2549;BME280;1284;53.520;10.248;2022-07-10T10:16:22;101371.53;;;25.04;45.39
2549;BME280;1284;53.520;10.248;2022-07-10T10:18:49;101365.44;;;25.26;46.05
2549;BME280;1284;53.520;10.248;2022-07-10T10:21:38;101361.94;;;25.09;44.60
2549;BME280;1284;53.520;10.248;2022-07-10T10:24:05;101373.47;;;24.91;44.15
2549;BME280;1284;53.520;10.248;2022-07-10T10:26:32;101368.22;;;24.97;43.41
2549;BME280;1284;53.520;10.248;2022-07-10T10:28:59;101371.13;;;25.19;44.57
2549;BME280;1284;53.520;10.248;2022-07-10T10:31:27;101374.50;;;25.39;44.72
2549;BME280;1284;53.520;10.248;2022-07-10T10:33:55;101370.47;;;25.43;44.19
2549;BME280;1284;53.520;10.248;2022-07-10T10:39:14;101372.47;;;25.27;44.04
2549;BME280;1284;53.520;10.248;2022-07-10T10:41:54;101367.47;;;25.63;42.60
2549;BME280;1284;53.520;10.248;2022-07-10T10:44:21;101378.75;;;25.81;43.91
2549;BME280;1284;53.520;10.248;2022-07-10T10:49:16;101372.41;;;26.09;43.33
2549;BME280;1284;53.520;10.248;2022-07-10T10:52:03;101366.50;;;26.32;41.94
2549;BME280;1284;53.520;10.248;2022-07-10T10:57:22;101367.00;;;26.52;40.58
2549;BME280;1284;53.520;10.248;2022-07-10T10:59:52;101369.22;;;26.57;39.70
2549;BME280;1284;53.520;10.248;2022-07-10T11:04:49;101367.28;;;26.67;39.91
2549;BME280;1284;53.520;10.248;2022-07-10T11:13:08;101382.31;;;25.81;42.23
2549;BME280;1284;53.520;10.248;2022-07-10T11:15:40;101375.78;;;26.13;41.32
2549;BME280;1284;53.520;10.248;2022-07-10T11:18:12;101371.78;;;26.39;40.99
2549;BME280;1284;53.520;10.248;2022-07-10T11:20:40;101369.50;;;26.72;40.93
2549;BME280;1284;53.520;10.248;2022-07-10T11:31:09;101370.44;;;27.12;40.16
2549;BME280;1284;53.520;10.248;2022-07-10T11:33:43;101370.22;;;26.85;39.84
2549;BME280;1284;53.520;10.248;2022-07-10T11:36:23;101361.03;;;26.88;38.16
2549;BME280;1284;53.520;10.248;2022-07-10T11:39:07;101368.81;;;26.68;42.10
2549;BME280;1284;53.520;10.248;2022-07-10T11:41:43;101366.75;;;26.72;40.91
2549;BME280;1284;53.520;10.248;2022-07-10T11:44:15;101371.28;;;27.00;40.35
2549;BME280;1284;53.520;10.248;2022-07-10T11:46:45;101359.13;;;27.19;40.13
2549;BME280;1284;53.520;10.248;2022-07-10T11:49:13;101371.91;;;27.04;40.22
2549;BME280;1284;53.520;10.248;2022-07-10T11:51:41;101364.44;;;26.70;40.63
2549;BME280;1284;53.520;10.248;2022-07-10T11:54:16;101371.00;;;26.51;41.33
2549;BME280;1284;53.520;10.248;2022-07-10T11:56:48;101372.25;;;26.38;41.05
2549;BME280;1284;53.520;10.248;2022-07-10T12:05:37;101375.91;;;25.72;41.23
2549;BME280;1284;53.520;10.248;2022-07-10T12:08:03;101368.94;;;25.55;42.23
2549;BME280;1284;53.520;10.248;2022-07-10T12:14:25;101381.84;;;25.83;41.97
2549;BME280;1284;53.520;10.248;2022-07-10T12:16:52;101381.09;;;25.82;41.60
2549;BME280;1284;53.520;10.248;2022-07-10T12:19:37;101387.06;;;25.68;42.03
2549;BME280;1284;53.520;10.248;2022-07-10T12:22:04;101383.84;;;25.70;42.45
2549;BME280;1284;53.520;10.248;2022-07-10T12:24:31;101370.25;;;25.88;43.88
2549;BME280;1284;53.520;10.248;2022-07-10T12:26:57;101372.13;;;26.04;43.26
2549;BME280;1284;53.520;10.248;2022-07-10T12:29:41;101373.59;;;26.08;43.74
2549;BME280;1284;53.520;10.248;2022-07-10T12:32:07;101381.31;;;26.13;42.26
2549;BME280;1284;53.520;10.248;2022-07-10T12:34:34;101372.47;;;25.80;42.50
2549;BME280;1284;53.520;10.248;2022-07-10T12:37:07;101382.50;;;25.62;43.01
2549;BME280;1284;53.520;10.248;2022-07-10T12:39:50;101389.56;;;25.63;42.37
2549;BME280;1284;53.520;10.248;2022-07-10T12:42:25;101389.22;;;25.48;43.24
2549;BME280;1284;53.520;10.248;2022-07-10T12:44:51;101386.00;;;25.50;43.05
2549;BME280;1284;53.520;10.248;2022-07-10T12:47:18;101385.00;;;25.44;44.38
2549;BME280;1284;53.520;10.248;2022-07-10T12:52:26;101390.44;;;25.47;43.30
2549;BME280;1284;53.520;10.248;2022-07-10T12:55:14;101388.16;;;25.30;43.95
2549;BME280;1284;53.520;10.248;2022-07-10T12:58:06;101384.72;;;25.26;44.61
2549;BME280;1284;53.520;10.248;2022-07-10T13:00:35;101393.41;;;25.12;44.84
2549;BME280;1284;53.520;10.248;2022-07-10T13:03:06;101400.09;;;25.11;43.88
2549;BME280;1284;53.520;10.248;2022-07-10T13:05:37;101401.44;;;25.06;43.92
2549;BME280;1284;53.520;10.248;2022-07-10T13:10:42;101410.53;;;24.90;44.14
2549;BME280;1284;53.520;10.248;2022-07-10T13:13:08;101410.19;;;24.72;45.93
2549;BME280;1284;53.520;10.248;2022-07-10T13:18:42;101410.28;;;24.85;45.38
2549;BME280;1284;53.520;10.248;2022-07-10T13:21:09;101407.63;;;24.81;45.57
2549;BME280;1284;53.520;10.248;2022-07-10T13:23:36;101413.97;;;24.78;45.08
2549;BME280;1284;53.520;10.248;2022-07-10T13:26:03;101410.44;;;24.78;46.54
2549;BME280;1284;53.520;10.248;2022-07-10T13:28:29;101406.16;;;24.77;45.50
2549;BME280;1284;53.520;10.248;2022-07-10T13:30:58;101406.06;;;24.80;46.13
2549;BME280;1284;53.520;10.248;2022-07-10T13:33:23;101410.09;;;24.76;46.14
2549;BME280;1284;53.520;10.248;2022-07-10T13:35:49;101420.03;;;24.73;46.27
2549;BME280;1284;53.520;10.248;2022-07-10T13:38:16;101422.34;;;24.75;45.64
2549;BME280;1284;53.520;10.248;2022-07-10T13:40:45;101417.28;;;24.73;45.09
2549;BME280;1284;53.520;10.248;2022-07-10T13:43:27;101408.38;;;24.66;45.29
2549;BME280;1284;53.520;10.248;2022-07-10T13:45:58;101415.44;;;24.51;47.25
2549;BME280;1284;53.520;10.248;2022-07-10T13:48:24;101415.19;;;24.45;47.19
2549;BME280;1284;53.520;10.248;2022-07-10T13:50:51;101412.09;;;24.43;46.82
2549;BME280;1284;53.520;10.248;2022-07-10T13:53:18;101419.59;;;24.43;48.31
2549;BME280;1284;53.520;10.248;2022-07-10T13:55:44;101409.78;;;24.58;47.63
2549;BME280;1284;53.520;10.248;2022-07-10T13:58:10;101399.84;;;24.60;48.26
2549;BME280;1284;53.520;10.248;2022-07-10T14:00:36;101411.41;;;24.55;47.66
2549;BME280;1284;53.520;10.248;2022-07-10T14:03:02;101406.91;;;24.45;46.66
2549;BME280;1284;53.520;10.248;2022-07-10T14:05:28;101408.22;;;24.41;46.13